createdAt,value
2018-05-17T00:00:10.480Z,14.90
2018-05-17T00:03:09.375Z,14.90
2018-05-17T00:06:07.490Z,14.80
2018-05-17T00:09:06.762Z,14.80
2018-05-17T00:12:04.974Z,14.60
2018-05-17T00:15:02.877Z,14.60
2018-05-17T00:18:00.576Z,14.60
2018-05-17T00:20:58.372Z,14.60
2018-05-17T00:23:56.215Z,14.70
2018-05-17T00:26:53.253Z,14.60
2018-05-17T00:29:50.413Z,14.50
2018-05-17T00:32:47.833Z,14.50
2018-05-17T00:35:45.602Z,14.30
2018-05-17T00:38:42.709Z,14.10
2018-05-17T00:41:41.664Z,14.10
2018-05-17T00:44:38.913Z,14.10
2018-05-17T00:47:37.243Z,14.10
2018-05-17T00:50:35.524Z,14.00
2018-05-17T00:53:45.783Z,13.90
2018-05-17T00:56:44.159Z,13.70
2018-05-17T00:59:41.432Z,13.70
2018-05-17T01:02:38.530Z,13.70
2018-05-17T01:05:37.474Z,13.70
2018-05-17T01:08:35.525Z,13.70
2018-05-17T01:11:33.520Z,13.70
2018-05-17T01:14:31.426Z,13.50
2018-05-17T01:17:28.631Z,13.50
2018-05-17T01:20:25.742Z,13.40
2018-05-17T01:23:23.089Z,13.40
2018-05-17T01:26:20.366Z,13.40
2018-05-17T01:29:17.645Z,13.30
2018-05-17T01:32:15.151Z,13.30
2018-05-17T01:35:12.494Z,13.40
2018-05-17T01:38:22.810Z,13.30
2018-05-17T01:41:20.161Z,13.30
2018-05-17T01:44:17.815Z,13.20
2018-05-17T01:47:15.039Z,13.20
2018-05-17T01:50:12.551Z,13.10
2018-05-17T01:53:09.852Z,13.00
2018-05-17T01:56:08.367Z,13.00
2018-05-17T01:59:05.737Z,13.00
2018-05-17T02:02:03.061Z,12.90
2018-05-17T02:05:01.293Z,12.70
2018-05-17T02:07:59.102Z,12.60
2018-05-17T02:10:57.043Z,12.70
2018-05-17T02:13:54.283Z,12.70
2018-05-17T02:16:52.281Z,12.50
2018-05-17T02:19:49.512Z,12.50
2018-05-17T02:22:47.625Z,12.50
2018-05-17T02:25:44.742Z,12.40
2018-05-17T02:28:42.402Z,12.40
2018-05-17T02:31:40.945Z,12.30
2018-05-17T02:34:39.072Z,12.30
2018-05-17T02:37:36.418Z,12.30
2018-05-17T02:40:33.620Z,12.10
2018-05-17T02:43:31.828Z,12.20
2018-05-17T02:46:30.133Z,12.30
2018-05-17T02:49:27.441Z,12.30
2018-05-17T02:52:25.405Z,12.00
2018-05-17T02:55:22.840Z,12.00
2018-05-17T02:58:20.380Z,11.90
2018-05-17T03:01:17.708Z,11.80
2018-05-17T03:04:14.965Z,11.80
2018-05-17T03:07:12.197Z,11.80
2018-05-17T03:10:09.419Z,11.80
2018-05-17T03:13:06.657Z,11.80
2018-05-17T03:16:04.110Z,11.80
2018-05-17T03:19:02.503Z,11.80
2018-05-17T03:21:59.755Z,11.70
2018-05-17T03:24:57.155Z,11.80
2018-05-17T03:27:55.130Z,11.70
2018-05-17T03:30:52.341Z,11.70
2018-05-17T03:33:49.496Z,11.70
2018-05-17T03:36:55.661Z,11.60
2018-05-17T03:39:52.853Z,11.60
2018-05-17T03:42:49.977Z,11.70
2018-05-17T03:45:48.386Z,11.50
2018-05-17T03:48:45.755Z,11.50
2018-05-17T03:51:42.933Z,11.50
2018-05-17T03:54:40.216Z,11.50
2018-05-17T03:57:37.363Z,11.50
2018-05-17T04:00:34.420Z,11.40
2018-05-17T04:03:44.880Z,11.40
2018-05-17T04:06:53.088Z,11.40
2018-05-17T04:09:50.424Z,11.40
2018-05-17T04:12:47.725Z,11.50
2018-05-17T04:15:44.819Z,11.50
2018-05-17T04:18:42.456Z,11.40
2018-05-17T04:21:39.523Z,11.60
2018-05-17T04:24:37.465Z,11.60
2018-05-17T04:27:34.476Z,11.60
2018-05-17T04:30:31.585Z,11.50
2018-05-17T04:33:29.588Z,11.50
2018-05-17T04:36:26.643Z,11.60
2018-05-17T04:39:23.824Z,11.50
2018-05-17T04:42:21.076Z,11.70
2018-05-17T04:45:18.415Z,11.70
2018-05-17T04:48:15.903Z,11.80
2018-05-17T04:51:12.926Z,11.70
2018-05-17T04:54:10.377Z,11.60
2018-05-17T04:57:07.473Z,11.60
2018-05-17T05:00:05.813Z,11.80
2018-05-17T05:03:03.307Z,11.80
2018-05-17T05:06:01.245Z,11.80
2018-05-17T05:08:58.539Z,11.80
2018-05-17T05:11:57.583Z,11.90
2018-05-17T05:14:56.074Z,11.90
2018-05-17T05:17:53.202Z,11.90
2018-05-17T05:20:50.337Z,12.00
2018-05-17T05:23:48.387Z,11.90
2018-05-17T05:26:45.373Z,12.00
2018-05-17T05:29:42.954Z,11.90
2018-05-17T05:32:41.513Z,12.10
2018-05-17T05:35:38.911Z,12.10
2018-05-17T05:38:36.228Z,12.40
2018-05-17T05:41:34.367Z,12.40
2018-05-17T05:44:31.559Z,12.30
2018-05-17T05:47:28.868Z,12.10
2018-05-17T05:50:26.598Z,12.00
2018-05-17T05:53:26.731Z,12.30
2018-05-17T05:56:24.472Z,12.30
2018-05-17T05:59:22.404Z,12.30
2018-05-17T06:02:19.866Z,12.30
2018-05-17T06:05:18.216Z,12.80
2018-05-17T06:08:16.272Z,12.80
2018-05-17T06:11:13.721Z,12.60
2018-05-17T06:14:10.773Z,12.70
2018-05-17T06:17:08.020Z,12.90
2018-05-17T06:20:05.382Z,12.90
2018-05-17T06:23:02.529Z,13.30
2018-05-17T06:25:59.636Z,13.30
2018-05-17T06:28:57.744Z,13.40
2018-05-17T06:31:54.980Z,13.60
2018-05-17T06:34:52.140Z,13.40
2018-05-17T06:37:50.014Z,13.40
2018-05-17T06:40:47.629Z,13.40
2018-05-17T06:43:45.057Z,13.20
2018-05-17T06:46:42.324Z,12.90
2018-05-17T06:49:39.426Z,12.80
2018-05-17T06:52:39.165Z,12.80
2018-05-17T06:55:36.240Z,12.70
2018-05-17T06:58:34.084Z,12.90
2018-05-17T07:01:31.371Z,12.90
2018-05-17T07:04:28.565Z,13.00
2018-05-17T07:07:25.942Z,13.10
2018-05-17T07:10:24.060Z,13.00
2018-05-17T07:13:21.218Z,12.90
2018-05-17T07:16:18.663Z,12.90
2018-05-17T07:19:16.362Z,13.00
2018-05-17T07:22:13.450Z,13.30
2018-05-17T07:25:10.532Z,13.60
2018-05-17T07:28:07.918Z,13.80
2018-05-17T07:31:06.917Z,13.80
2018-05-17T07:34:04.926Z,13.80
2018-05-17T07:37:02.076Z,13.50
2018-05-17T07:39:59.412Z,13.70
2018-05-17T07:42:57.267Z,13.70
2018-05-17T07:45:54.923Z,13.80
2018-05-17T07:48:53.692Z,13.90
2018-05-17T07:51:51.299Z,13.80
2018-05-17T07:54:48.536Z,13.60
2018-05-17T07:57:46.219Z,14.00
2018-05-17T08:00:43.524Z,13.70
2018-05-17T08:03:41.069Z,13.60
2018-05-17T08:06:38.362Z,14.00
2018-05-17T08:09:36.019Z,13.90
2018-05-17T08:12:33.185Z,13.60
2018-05-17T08:15:31.835Z,13.50
2018-05-17T08:18:29.916Z,13.40
2018-05-17T08:21:27.465Z,13.40
2018-05-17T08:24:25.523Z,13.30
2018-05-17T08:27:22.652Z,13.30
2018-05-17T08:30:20.571Z,13.00
2018-05-17T08:33:18.997Z,13.30
2018-05-17T08:36:16.470Z,13.30
2018-05-17T08:39:13.424Z,13.70
2018-05-17T08:42:10.966Z,13.80
2018-05-17T08:45:08.266Z,13.70
2018-05-17T08:48:05.621Z,13.80
2018-05-17T08:51:02.657Z,13.80
2018-05-17T08:54:00.045Z,13.70
2018-05-17T08:57:03.400Z,13.60
2018-05-17T09:00:00.464Z,13.40
2018-05-17T09:02:57.593Z,13.40
2018-05-17T09:05:54.911Z,13.20
2018-05-17T09:08:52.299Z,13.40
2018-05-17T09:11:49.540Z,13.50
2018-05-17T09:14:46.872Z,13.70
2018-05-17T09:17:45.836Z,13.80
2018-05-17T09:20:43.786Z,13.70
2018-05-17T09:23:40.945Z,13.90
2018-05-17T09:26:38.298Z,13.60
2018-05-17T09:29:35.875Z,13.70
2018-05-17T09:32:32.924Z,13.80
2018-05-17T09:35:30.382Z,13.50
2018-05-17T09:38:28.571Z,13.60
2018-05-17T09:41:27.186Z,13.60
2018-05-17T09:44:25.857Z,13.60
2018-05-17T09:47:23.945Z,13.60
2018-05-17T09:50:21.098Z,13.70
2018-05-17T09:53:18.433Z,13.90
2018-05-17T09:56:16.276Z,13.30
2018-05-17T09:59:14.711Z,13.60
2018-05-17T10:02:12.264Z,13.50
2018-05-17T10:05:10.575Z,13.70
2018-05-17T10:08:07.767Z,13.60
2018-05-17T10:11:04.993Z,13.50
2018-05-17T10:14:02.305Z,13.40
2018-05-17T10:16:59.753Z,13.20
2018-05-17T10:19:56.902Z,13.50
2018-05-17T10:22:54.112Z,13.40
2018-05-17T10:25:52.132Z,13.70
2018-05-17T10:28:50.551Z,13.50
2018-05-17T10:31:48.411Z,13.40
2018-05-17T10:34:47.586Z,13.30
2018-05-17T10:37:44.756Z,13.20
2018-05-17T10:40:42.692Z,13.20
2018-05-17T10:43:39.935Z,13.30
2018-05-17T10:46:37.287Z,13.10
2018-05-17T10:49:34.588Z,13.10
2018-05-17T10:52:31.964Z,13.10
2018-05-17T10:55:30.037Z,13.20
2018-05-17T10:58:28.837Z,13.20
2018-05-17T11:01:26.830Z,13.10
2018-05-17T11:04:24.023Z,13.10
2018-05-17T11:07:23.001Z,13.10
2018-05-17T11:10:21.509Z,13.10
2018-05-17T11:13:19.431Z,13.10
2018-05-17T11:16:16.681Z,13.00
2018-05-17T11:19:13.850Z,13.00
2018-05-17T11:22:11.184Z,12.90
2018-05-17T11:25:09.204Z,13.00
2018-05-17T11:28:06.728Z,13.20
2018-05-17T11:31:04.365Z,13.10
2018-05-17T11:34:03.386Z,13.10
2018-05-17T11:37:01.448Z,13.20
2018-05-17T11:39:58.820Z,13.40
2018-05-17T11:42:55.945Z,13.40
2018-05-17T11:45:53.877Z,13.40
2018-05-17T11:48:51.783Z,13.40
2018-05-17T11:51:49.087Z,13.50
2018-05-17T11:54:46.873Z,13.40
2018-05-17T11:57:45.296Z,13.70
2018-05-17T12:00:42.499Z,13.70
2018-05-17T12:03:39.729Z,13.70
2018-05-17T12:06:36.937Z,13.50
2018-05-17T12:09:34.445Z,13.50
2018-05-17T12:12:32.327Z,13.60
2018-05-17T12:15:29.665Z,13.70
2018-05-17T12:18:26.821Z,13.70
2018-05-17T12:21:24.356Z,14.00
2018-05-17T12:24:21.584Z,14.10
2018-05-17T12:27:18.796Z,14.30
2018-05-17T12:30:16.154Z,14.30
2018-05-17T12:33:14.231Z,14.50
2018-05-17T12:36:11.427Z,14.40
2018-05-17T12:39:08.602Z,14.40
2018-05-17T12:42:06.531Z,14.30
2018-05-17T12:45:03.860Z,14.30
2018-05-17T12:48:01.962Z,14.40
2018-05-17T12:50:59.243Z,14.40
2018-05-17T12:53:58.228Z,14.40
2018-05-17T12:56:55.399Z,14.50
2018-05-17T12:59:53.562Z,14.90
2018-05-17T13:02:50.812Z,14.90
2018-05-17T13:05:48.192Z,14.90
2018-05-17T13:08:45.747Z,14.80
2018-05-17T13:11:43.207Z,15.00
2018-05-17T13:14:40.770Z,15.50
2018-05-17T13:17:38.665Z,15.50
2018-05-17T13:20:36.946Z,15.30
2018-05-17T13:23:34.642Z,15.30
2018-05-17T13:26:33.063Z,15.30
2018-05-17T13:29:30.493Z,15.30
2018-05-17T13:32:28.460Z,15.70
2018-05-17T13:35:25.852Z,15.70
2018-05-17T13:38:23.839Z,15.70
2018-05-17T13:41:21.611Z,15.60
2018-05-17T13:44:22.492Z,15.50
2018-05-17T13:47:21.904Z,15.50
2018-05-17T13:50:19.132Z,15.60
2018-05-17T13:53:16.247Z,15.40
2018-05-17T13:56:15.131Z,15.60
2018-05-17T13:59:12.397Z,15.80
2018-05-17T14:02:10.433Z,15.90
2018-05-17T14:05:08.784Z,16.00
2018-05-17T14:08:06.170Z,16.10
2018-05-17T14:11:04.156Z,16.00
2018-05-17T14:14:02.395Z,16.00
2018-05-17T14:16:59.629Z,16.00
2018-05-17T14:19:57.677Z,16.00
2018-05-17T14:22:55.499Z,16.10
2018-05-17T14:25:52.666Z,16.20
2018-05-17T14:28:49.824Z,16.40
2018-05-17T14:31:48.486Z,16.00
2018-05-17T14:34:46.901Z,15.30
2018-05-17T14:37:45.873Z,15.30
2018-05-17T14:40:43.292Z,15.50
2018-05-17T14:43:40.890Z,15.70
2018-05-17T14:46:38.256Z,16.10
2018-05-17T14:49:36.166Z,16.40
2018-05-17T14:52:33.380Z,16.30
2018-05-17T14:55:31.573Z,16.10
2018-05-17T14:58:29.418Z,15.90
2018-05-17T15:01:26.574Z,16.00
2018-05-17T15:04:27.995Z,16.10
2018-05-17T15:07:25.036Z,16.20
2018-05-17T15:10:22.896Z,16.20
2018-05-17T15:13:20.531Z,16.20
2018-05-17T15:16:19.090Z,16.10
2018-05-17T15:19:16.869Z,16.20
2018-05-17T15:22:14.040Z,16.30
2018-05-17T15:25:12.863Z,16.30
2018-05-17T15:28:11.719Z,16.40
2018-05-17T15:31:09.706Z,16.40
2018-05-17T15:34:07.714Z,16.10
2018-05-17T15:37:04.896Z,16.00
2018-05-17T15:40:03.346Z,16.20
2018-05-17T15:43:00.969Z,16.10
2018-05-17T15:45:58.233Z,16.10
2018-05-17T15:48:56.207Z,16.10
2018-05-17T15:51:53.277Z,16.20
2018-05-17T15:54:50.614Z,16.30
2018-05-17T15:57:48.858Z,16.00
2018-05-17T16:00:46.633Z,15.90
2018-05-17T16:03:44.553Z,16.00
2018-05-17T16:06:42.022Z,16.10
2018-05-17T16:09:39.371Z,16.30
2018-05-17T16:12:37.606Z,16.50
2018-05-17T16:15:35.868Z,16.50
2018-05-17T16:18:34.401Z,16.50
2018-05-17T16:21:31.699Z,16.40
2018-05-17T16:24:29.112Z,16.20
2018-05-17T16:27:26.508Z,15.90
2018-05-17T16:30:24.462Z,16.00
2018-05-17T16:33:22.405Z,15.90
2018-05-17T16:36:19.585Z,15.90
2018-05-17T16:39:16.825Z,15.70
2018-05-17T16:42:13.964Z,15.50
2018-05-17T16:45:11.180Z,15.70
2018-05-17T16:48:08.360Z,15.80
2018-05-17T16:51:05.514Z,15.80
2018-05-17T16:54:02.705Z,15.60
2018-05-17T16:57:02.074Z,15.20
2018-05-17T17:00:01.417Z,15.00
2018-05-17T17:02:58.775Z,14.90
2018-05-17T17:05:56.011Z,14.80
2018-05-17T17:08:53.557Z,14.80
2018-05-17T17:11:51.321Z,14.60
2018-05-17T17:14:48.556Z,14.50
2018-05-17T17:17:45.755Z,14.40
2018-05-17T17:20:43.048Z,14.20
2018-05-17T17:23:41.370Z,14.20
2018-05-17T17:26:38.834Z,14.20
2018-05-17T17:29:36.344Z,14.10
2018-05-17T17:32:33.590Z,14.00
2018-05-17T17:35:31.056Z,13.90
2018-05-17T17:38:28.424Z,13.90
2018-05-17T17:41:26.835Z,14.00
2018-05-17T17:44:24.427Z,13.90
2018-05-17T17:47:22.450Z,13.80
2018-05-17T17:50:20.025Z,13.70
2018-05-17T17:53:17.193Z,13.80
2018-05-17T17:56:15.284Z,13.60
2018-05-17T17:59:13.428Z,13.70
2018-05-17T18:02:11.686Z,13.50
2018-05-17T18:05:08.950Z,13.40
2018-05-17T18:08:06.337Z,13.40
2018-05-17T18:11:03.732Z,13.30
2018-05-17T18:14:01.191Z,13.30
2018-05-17T18:16:58.653Z,13.20
2018-05-17T18:19:55.948Z,13.10
2018-05-17T18:22:53.690Z,13.30
2018-05-17T18:25:50.844Z,13.20
2018-05-17T18:28:48.215Z,13.20
2018-05-17T18:31:45.341Z,13.20
2018-05-17T18:34:43.485Z,13.00
2018-05-17T18:37:40.685Z,13.20
2018-05-17T18:40:38.561Z,13.30
2018-05-17T18:43:35.669Z,13.30
2018-05-17T18:46:32.846Z,13.20
2018-05-17T18:49:31.659Z,13.30
2018-05-17T18:52:29.742Z,13.20
2018-05-17T18:55:28.653Z,13.40
2018-05-17T18:58:26.036Z,13.20
2018-05-17T19:01:23.210Z,13.10
2018-05-17T19:04:21.302Z,13.00
2018-05-17T19:07:19.082Z,13.10
2018-05-17T19:10:16.332Z,13.10
2018-05-17T19:13:13.477Z,13.10
2018-05-17T19:16:12.020Z,13.00
2018-05-17T19:19:09.171Z,13.00
2018-05-17T19:22:06.630Z,13.00
2018-05-17T19:25:03.878Z,13.00
2018-05-17T19:28:02.132Z,12.90
2018-05-17T19:31:01.073Z,12.80
2018-05-17T19:33:58.570Z,12.70
2018-05-17T19:36:56.611Z,12.70
2018-05-17T19:39:53.648Z,12.50
2018-05-17T19:42:51.095Z,12.60
2018-05-17T19:45:48.210Z,12.60
2018-05-17T19:48:46.678Z,12.40
2018-05-17T19:51:44.035Z,12.40
2018-05-17T19:54:41.675Z,12.40
2018-05-17T19:57:39.022Z,12.40
2018-05-17T20:00:36.347Z,12.40
2018-05-17T20:03:35.617Z,12.10
2018-05-17T20:06:32.792Z,12.10
2018-05-17T20:09:30.821Z,12.10
2018-05-17T20:12:27.865Z,12.10
2018-05-17T20:15:25.108Z,12.00
2018-05-17T20:18:22.415Z,12.00
2018-05-17T20:21:21.162Z,11.90
2018-05-17T20:24:18.429Z,11.90
2018-05-17T20:27:16.048Z,11.90
2018-05-17T20:30:14.198Z,11.80
2018-05-17T20:33:11.691Z,11.80
2018-05-17T20:36:10.034Z,11.70
2018-05-17T20:39:07.319Z,11.70
2018-05-17T20:42:04.672Z,11.70
2018-05-17T20:45:02.815Z,11.70
2018-05-17T20:48:00.421Z,11.60
2018-05-17T20:50:58.049Z,11.60
2018-05-17T20:53:56.442Z,11.60
2018-05-17T20:56:53.929Z,11.60
2018-05-17T20:59:52.016Z,11.50
2018-05-17T21:02:51.364Z,11.50
2018-05-17T21:05:48.729Z,11.40
2018-05-17T21:08:46.116Z,11.40
2018-05-17T21:11:43.321Z,11.30
2018-05-17T21:14:40.605Z,11.30
2018-05-17T21:17:38.677Z,11.20
2018-05-17T21:20:36.457Z,11.20
2018-05-17T21:23:34.416Z,11.30
2018-05-17T21:26:31.716Z,11.20
2018-05-17T21:29:29.028Z,11.20
2018-05-17T21:32:27.527Z,11.20
2018-05-17T21:35:24.665Z,11.20
2018-05-17T21:38:21.886Z,11.00
2018-05-17T21:41:19.860Z,11.10
2018-05-17T21:44:17.051Z,11.10
2018-05-17T21:47:14.541Z,11.10
2018-05-17T21:50:11.885Z,11.10
2018-05-17T21:53:09.021Z,11.10
2018-05-17T21:56:06.099Z,11.10
2018-05-17T21:59:03.530Z,11.10
2018-05-17T22:02:00.788Z,11.00
2018-05-17T22:04:58.664Z,11.00
2018-05-17T22:07:56.392Z,11.00
2018-05-17T22:10:54.468Z,11.00
2018-05-17T22:13:51.787Z,10.90
2018-05-17T22:16:49.060Z,10.90
2018-05-17T22:19:47.276Z,10.90
2018-05-17T22:22:44.775Z,10.90
2018-05-17T22:25:42.952Z,10.80
2018-05-17T22:28:41.037Z,10.90
2018-05-17T22:31:38.110Z,11.00
2018-05-17T22:34:35.204Z,11.00
2018-05-17T22:37:33.016Z,10.90
2018-05-17T22:40:30.221Z,10.90
2018-05-17T22:43:27.333Z,10.90
2018-05-17T22:46:26.336Z,10.80
2018-05-17T22:49:23.677Z,10.80
2018-05-17T22:52:20.955Z,10.90
2018-05-17T22:55:18.369Z,10.90
2018-05-17T22:58:27.771Z,10.90
2018-05-17T23:01:24.949Z,11.00
2018-05-17T23:04:22.359Z,11.00
2018-05-17T23:07:21.488Z,11.00
2018-05-17T23:10:20.047Z,11.00
2018-05-17T23:13:18.024Z,11.00
2018-05-17T23:16:16.461Z,11.00
2018-05-17T23:19:14.024Z,11.00
2018-05-17T23:22:12.882Z,11.10
2018-05-17T23:25:11.538Z,11.00
2018-05-17T23:28:08.828Z,11.00
2018-05-17T23:31:05.866Z,11.20
2018-05-17T23:34:03.216Z,11.20
2018-05-17T23:37:01.283Z,11.10
2018-05-17T23:39:58.488Z,11.10
2018-05-17T23:42:56.689Z,11.00
2018-05-17T23:45:53.883Z,11.00
2018-05-17T23:48:51.063Z,11.10
2018-05-17T23:51:48.382Z,11.10
2018-05-17T23:54:45.519Z,11.00
2018-05-17T23:57:42.675Z,11.00
